createdAt,value
2018-08-18T00:02:26.259Z,3.60
2018-08-18T00:04:54.888Z,4.23
2018-08-18T00:07:24.164Z,4.17
2018-08-18T00:09:52.810Z,4.37
2018-08-18T00:12:26.636Z,5.40
2018-08-18T00:14:55.365Z,5.53
2018-08-18T00:17:23.849Z,5.30
2018-08-18T00:19:54.077Z,5.53
2018-08-18T00:22:22.608Z,5.53
2018-08-18T00:25:02.281Z,5.57
2018-08-18T00:27:30.744Z,6.33
2018-08-18T00:30:04.843Z,5.93
2018-08-18T00:32:33.317Z,6.17
2018-08-18T00:35:01.759Z,6.10
2018-08-18T00:37:30.245Z,7.03
2018-08-18T00:39:58.685Z,6.53
2018-08-18T00:42:27.145Z,5.87
2018-08-18T00:44:55.660Z,5.97
2018-08-18T00:47:24.130Z,6.20
2018-08-18T00:49:52.597Z,6.33
2018-08-18T00:52:21.073Z,6.50
2018-08-18T00:54:49.530Z,6.57
2018-08-18T00:57:28.508Z,7.17
2018-08-18T00:59:57.657Z,6.37
2018-08-18T01:02:26.612Z,6.97
2018-08-18T01:04:57.359Z,6.90
2018-08-18T01:07:27.582Z,6.83
2018-08-18T01:09:56.412Z,6.97
2018-08-18T01:12:25.631Z,6.80
2018-08-18T01:14:54.443Z,6.77
2018-08-18T01:17:23.280Z,6.63
2018-08-18T01:19:55.296Z,7.10
2018-08-18T01:22:23.772Z,6.70
2018-08-18T01:24:52.752Z,6.40
2018-08-18T01:27:21.462Z,6.90
2018-08-18T01:29:55.122Z,7.03
2018-08-18T01:32:23.849Z,6.70
2018-08-18T01:34:52.928Z,6.70
2018-08-18T01:37:21.728Z,7.63
2018-08-18T01:39:51.753Z,7.20
2018-08-18T01:42:20.216Z,6.67
2018-08-18T01:44:49.875Z,6.53
2018-08-18T01:47:18.512Z,7.23
2018-08-18T01:49:46.924Z,7.20
2018-08-18T01:52:20.577Z,7.40
2018-08-18T01:54:49.003Z,6.37
2018-08-18T01:57:18.769Z,6.87
2018-08-18T01:59:47.670Z,7.10
2018-08-18T02:02:20.168Z,6.47
2018-08-18T02:04:49.216Z,6.33
2018-08-18T02:07:24.378Z,6.43
2018-08-18T02:09:53.064Z,6.07
2018-08-18T02:12:22.444Z,6.17
2018-08-18T02:14:50.972Z,6.17
2018-08-18T02:17:26.476Z,6.27
2018-08-18T02:19:55.467Z,6.17
2018-08-18T02:22:24.972Z,5.77
2018-08-18T02:24:53.416Z,6.50
2018-08-18T02:27:21.908Z,6.57
2018-08-18T02:30:02.305Z,6.80
2018-08-18T02:32:32.110Z,7.13
2018-08-18T02:35:00.573Z,7.00
2018-08-18T02:37:29.788Z,6.50
2018-08-18T02:39:58.267Z,7.23
2018-08-18T02:42:26.712Z,6.43
2018-08-18T02:44:55.229Z,6.80
2018-08-18T02:47:23.932Z,6.90
2018-08-18T02:49:53.536Z,6.97
2018-08-18T02:52:28.364Z,6.50
2018-08-18T02:55:06.265Z,6.53
2018-08-18T02:57:39.120Z,7.07
2018-08-18T03:00:10.235Z,6.50
2018-08-18T03:02:38.696Z,6.73
2018-08-18T03:05:07.248Z,7.33
2018-08-18T03:07:55.443Z,6.93
2018-08-18T03:10:24.652Z,6.90
2018-08-18T03:12:59.304Z,7.33
2018-08-18T03:16:10.263Z,7.37
2018-08-18T03:18:47.932Z,7.30
2018-08-18T03:21:16.928Z,7.73
2018-08-18T03:23:57.421Z,7.20
2018-08-18T03:26:31.933Z,6.90
2018-08-18T03:29:00.540Z,6.37
2018-08-18T03:31:28.933Z,6.90
2018-08-18T03:33:57.377Z,6.80
2018-08-18T03:36:32.303Z,6.80
2018-08-18T03:39:00.730Z,7.00
2018-08-18T03:41:30.176Z,6.90
2018-08-18T03:43:59.007Z,7.17
2018-08-18T03:46:27.465Z,7.03
2018-08-18T03:48:55.912Z,6.87
2018-08-18T03:51:30.244Z,7.93
2018-08-18T03:53:58.955Z,7.60
2018-08-18T03:56:28.377Z,8.23
2018-08-18T03:58:57.753Z,7.33
2018-08-18T04:01:53.372Z,7.47
2018-08-18T04:04:23.153Z,7.70
2018-08-18T04:06:53.984Z,7.23
2018-08-18T04:09:24.858Z,8.27
2018-08-18T04:11:53.738Z,7.40
2018-08-18T04:14:43.721Z,7.17
2018-08-18T04:17:24.165Z,6.80
2018-08-18T04:19:52.966Z,6.93
2018-08-18T04:22:22.963Z,7.23
2018-08-18T04:24:51.463Z,7.50
2018-08-18T04:27:45.118Z,7.23
2018-08-18T04:30:18.296Z,7.20
2018-08-18T04:32:58.632Z,7.53
2018-08-18T04:35:28.155Z,7.30
2018-08-18T04:37:57.566Z,7.43
2018-08-18T04:40:26.549Z,7.73
2018-08-18T04:42:58.428Z,7.10
2018-08-18T04:45:26.961Z,7.27
2018-08-18T04:47:55.441Z,6.67
2018-08-18T04:50:23.904Z,7.67
2018-08-18T04:52:54.077Z,7.30
2018-08-18T04:55:22.660Z,7.53
2018-08-18T04:57:51.463Z,7.17
2018-08-18T05:00:20.177Z,7.00
2018-08-18T05:02:57.108Z,7.13
2018-08-18T05:05:27.725Z,7.43
2018-08-18T05:07:58.289Z,7.53
2018-08-18T05:10:27.501Z,6.90
2018-08-18T05:12:56.052Z,6.80
2018-08-18T05:15:24.508Z,7.03
2018-08-18T05:17:52.982Z,6.70
2018-08-18T05:20:24.457Z,7.27
2018-08-18T05:22:52.900Z,6.97
2018-08-18T05:25:28.560Z,6.17
2018-08-18T05:27:57.960Z,5.77
2018-08-18T05:30:26.437Z,6.67
2018-08-18T05:32:54.948Z,7.23
2018-08-18T05:35:23.426Z,6.40
2018-08-18T05:37:51.915Z,6.57
2018-08-18T05:40:20.447Z,6.50
2018-08-18T05:42:48.904Z,6.60
2018-08-18T05:45:26.039Z,6.13
2018-08-18T05:47:55.039Z,6.50
2018-08-18T05:50:27.008Z,6.27
2018-08-18T05:52:58.388Z,6.40
2018-08-18T05:55:27.117Z,6.30
2018-08-18T05:57:55.596Z,7.20
2018-08-18T06:00:25.260Z,6.10
2018-08-18T06:04:12.660Z,7.10
2018-08-18T06:06:41.829Z,6.40
2018-08-18T06:09:12.682Z,6.67
2018-08-18T06:11:41.222Z,5.97
2018-08-18T06:14:11.104Z,6.57
2018-08-18T06:16:40.384Z,6.20
2018-08-18T06:19:08.960Z,5.40
2018-08-18T06:21:37.437Z,5.57
2018-08-18T06:24:06.006Z,5.40
2018-08-18T06:26:34.520Z,4.37
2018-08-18T06:29:03.017Z,4.37
2018-08-18T06:31:31.493Z,4.87
2018-08-18T06:33:59.957Z,4.77
2018-08-18T06:36:28.481Z,5.00
2018-08-18T06:38:56.928Z,5.40
2018-08-18T06:41:25.485Z,5.37
2018-08-18T06:43:53.857Z,5.20
2018-08-18T06:46:22.332Z,5.20
2018-08-18T06:48:50.812Z,4.90
2018-08-18T06:51:19.252Z,4.37
2018-08-18T06:53:48.844Z,4.53
2018-08-18T06:56:17.284Z,4.60
2018-08-18T06:58:45.713Z,4.20
2018-08-18T07:01:14.179Z,4.10
2018-08-18T07:03:46.128Z,4.10
2018-08-18T07:06:16.560Z,3.80
2018-08-18T07:08:50.373Z,4.40
2018-08-18T07:11:18.854Z,4.07
2018-08-18T07:13:48.028Z,4.40
2018-08-18T07:16:16.497Z,4.27
2018-08-18T07:18:44.928Z,3.90
2018-08-18T07:21:13.974Z,3.73
2018-08-18T07:23:42.408Z,3.93
2018-08-18T07:26:10.853Z,3.87
2018-08-18T07:28:39.381Z,3.40
2018-08-18T07:31:07.792Z,3.50
2018-08-18T07:33:36.223Z,2.43
2018-08-18T07:36:04.682Z,2.60
2018-08-18T07:38:33.103Z,2.60
2018-08-18T07:41:01.613Z,2.90
2018-08-18T07:43:31.564Z,2.90
2018-08-18T07:46:05.957Z,2.20
2018-08-18T07:48:37.424Z,2.60
2018-08-18T07:51:05.914Z,2.50
2018-08-18T07:53:34.428Z,2.20
2018-08-18T07:56:02.823Z,2.10
2018-08-18T07:58:31.255Z,2.10
2018-08-18T08:01:00.316Z,2.40
2018-08-18T08:03:28.784Z,2.37
2018-08-18T08:05:57.253Z,2.13
2018-08-18T08:08:34.006Z,2.10
2018-08-18T08:11:07.844Z,2.33
2018-08-18T08:13:36.285Z,2.67
2018-08-18T08:16:04.733Z,2.30
2018-08-18T08:18:33.232Z,2.43
2018-08-18T08:21:01.697Z,2.17
2018-08-18T08:23:30.246Z,1.83
2018-08-18T08:26:00.378Z,2.00
2018-08-18T08:28:28.848Z,2.10
2018-08-18T08:30:57.328Z,2.40
2018-08-18T08:33:34.412Z,2.43
2018-08-18T08:36:05.294Z,1.90
2018-08-18T08:38:45.161Z,2.27
2018-08-18T08:41:13.587Z,2.43
2018-08-18T08:43:42.032Z,2.33
2018-08-18T08:46:11.285Z,2.33
2018-08-18T08:48:39.712Z,2.27
2018-08-18T08:51:08.180Z,2.23
2018-08-18T08:53:36.700Z,2.40
2018-08-18T08:56:05.196Z,2.40
2018-08-18T08:58:36.773Z,2.30
2018-08-18T09:01:05.205Z,2.70
2018-08-18T09:03:34.796Z,2.40
2018-08-18T09:06:03.441Z,2.70
2018-08-18T09:08:31.897Z,2.90
2018-08-18T09:11:00.382Z,2.83
2018-08-18T09:13:28.849Z,2.70
2018-08-18T09:15:57.309Z,2.93
2018-08-18T09:18:25.788Z,3.00
2018-08-18T09:20:54.265Z,2.87
2018-08-18T09:23:23.256Z,3.23
2018-08-18T09:25:51.729Z,3.83
2018-08-18T09:28:20.168Z,2.97
2018-08-18T09:30:48.721Z,3.40
2018-08-18T09:33:17.156Z,3.50
2018-08-18T09:35:59.296Z,3.27
2018-08-18T09:38:27.777Z,3.07
2018-08-18T09:40:56.249Z,3.70
2018-08-18T09:43:25.857Z,3.43
2018-08-18T09:45:55.606Z,3.60
2018-08-18T09:48:25.340Z,4.03
2018-08-18T09:50:55.276Z,4.17
2018-08-18T09:53:23.771Z,3.77
2018-08-18T09:55:52.713Z,3.70
2018-08-18T09:58:21.172Z,3.47
2018-08-18T10:00:49.610Z,4.17
2018-08-18T10:03:18.130Z,4.27
2018-08-18T10:05:46.572Z,3.93
2018-08-18T10:08:15.054Z,4.00
2018-08-18T10:10:43.472Z,4.17
2018-08-18T10:13:11.965Z,4.07
2018-08-18T10:15:40.433Z,3.93
2018-08-18T10:18:09.254Z,3.13
2018-08-18T10:20:43.120Z,4.13
2018-08-18T10:23:11.958Z,4.10
2018-08-18T10:25:40.526Z,5.37
2018-08-18T10:28:09.057Z,4.93
2018-08-18T10:30:37.504Z,5.27
2018-08-18T10:33:06.093Z,5.43
2018-08-18T10:35:34.590Z,5.23
2018-08-18T10:38:04.513Z,4.80
2018-08-18T10:40:32.977Z,4.60
2018-08-18T10:43:01.471Z,4.67
2018-08-18T10:45:29.948Z,4.30
2018-08-18T10:47:58.387Z,4.63
2018-08-18T10:51:36.890Z,5.13
2018-08-18T10:54:05.379Z,3.50
2018-08-18T10:56:33.879Z,4.07
2018-08-18T10:59:20.294Z,4.63
2018-08-18T11:02:09.013Z,4.50
2018-08-18T11:04:38.067Z,3.67
2018-08-18T11:07:06.524Z,3.63
2018-08-18T11:09:34.996Z,3.23
2018-08-18T11:12:03.752Z,3.20
2018-08-18T11:14:32.201Z,3.10
2018-08-18T11:17:00.701Z,2.70
2018-08-18T11:19:29.182Z,3.37
2018-08-18T11:22:08.768Z,3.80
2018-08-18T11:24:37.212Z,3.40
2018-08-18T11:27:05.706Z,3.00
2018-08-18T11:29:34.137Z,3.20
2018-08-18T11:32:02.614Z,3.20
2018-08-18T11:34:31.069Z,3.13
2018-08-18T11:37:06.550Z,3.00
2018-08-18T11:39:34.996Z,2.80
2018-08-18T11:42:04.258Z,2.73
2018-08-18T11:44:32.687Z,3.10
2018-08-18T11:47:01.712Z,3.00
2018-08-18T11:49:30.109Z,2.43
2018-08-18T11:51:58.581Z,3.40
2018-08-18T11:54:27.134Z,2.23
2018-08-18T11:56:55.876Z,2.30
2018-08-18T11:59:24.408Z,3.00
2018-08-18T12:01:55.480Z,2.30
2018-08-18T12:04:24.273Z,2.40
2018-08-18T12:06:56.731Z,2.30
2018-08-18T12:09:25.264Z,2.40
2018-08-18T12:11:53.773Z,2.50
2018-08-18T12:14:22.586Z,1.97
2018-08-18T12:16:51.268Z,2.57
2018-08-18T12:19:19.900Z,2.43
2018-08-18T12:21:48.390Z,2.23
2018-08-18T12:24:19.448Z,3.03
2018-08-18T12:26:59.213Z,2.10
2018-08-18T12:29:30.750Z,2.63
2018-08-18T12:31:59.458Z,2.57
2018-08-18T12:34:27.896Z,2.53
2018-08-18T12:36:56.632Z,2.43
2018-08-18T12:39:24.950Z,2.17
2018-08-18T12:41:53.434Z,2.27
2018-08-18T12:44:26.109Z,2.30
2018-08-18T12:46:54.826Z,2.03
2018-08-18T12:49:23.380Z,2.23
2018-08-18T12:51:51.954Z,2.23
2018-08-18T12:54:20.505Z,2.33
2018-08-18T12:56:49.830Z,2.50
2018-08-18T12:59:18.350Z,3.27
2018-08-18T13:01:48.193Z,2.70
2018-08-18T13:04:18.298Z,2.30
2018-08-18T13:06:51.093Z,2.33
2018-08-18T13:09:27.167Z,2.20
2018-08-18T13:11:56.981Z,2.20
2018-08-18T13:14:27.292Z,2.50
2018-08-18T13:16:56.436Z,2.07
2018-08-18T13:19:26.801Z,2.00
2018-08-18T13:21:55.253Z,2.13
2018-08-18T13:24:23.826Z,1.97
2018-08-18T13:26:52.421Z,2.10
2018-08-18T13:29:20.985Z,1.93
2018-08-18T13:31:49.460Z,1.70
2018-08-18T13:34:19.484Z,2.57
2018-08-18T13:36:48.120Z,1.93
2018-08-18T13:39:19.461Z,2.47
2018-08-18T13:41:49.032Z,2.50
2018-08-18T13:44:25.193Z,2.43
2018-08-18T13:46:54.531Z,2.50
2018-08-18T13:49:24.325Z,2.03
2018-08-18T13:51:52.886Z,2.47
2018-08-18T13:54:21.411Z,1.93
2018-08-18T13:56:49.922Z,1.80
2018-08-18T13:59:44.761Z,2.03
2018-08-18T14:02:13.296Z,2.10
2018-08-18T14:04:42.732Z,2.30
2018-08-18T14:07:12.883Z,2.13
2018-08-18T14:09:43.538Z,2.00
2018-08-18T14:12:14.861Z,2.00
2018-08-18T14:14:43.513Z,1.90
2018-08-18T14:17:12.509Z,2.13
2018-08-18T14:19:40.998Z,1.70
2018-08-18T14:22:10.477Z,1.60
2018-08-18T14:24:40.107Z,1.80
2018-08-18T14:27:12.689Z,2.67
2018-08-18T14:29:41.305Z,2.43
2018-08-18T14:32:16.069Z,1.83
2018-08-18T14:34:52.062Z,1.27
2018-08-18T14:37:21.374Z,1.57
2018-08-18T14:39:49.873Z,1.40
2018-08-18T14:42:18.348Z,1.60
2018-08-18T14:44:46.883Z,1.70
2018-08-18T14:47:15.305Z,1.87
2018-08-18T14:49:43.806Z,1.80
2018-08-18T14:52:12.305Z,1.50
2018-08-18T14:54:40.777Z,1.67
2018-08-18T14:57:09.346Z,1.70
2018-08-18T14:59:38.417Z,1.53
2018-08-18T15:02:07.991Z,1.80
2018-08-18T15:04:36.571Z,1.53
2018-08-18T15:07:06.028Z,2.23
2018-08-18T15:09:43.673Z,1.20
2018-08-18T15:12:12.287Z,1.70
2018-08-18T15:14:40.782Z,1.20
2018-08-18T15:17:09.273Z,1.53
2018-08-18T15:19:38.091Z,1.10
2018-08-18T15:22:11.363Z,1.30
2018-08-18T15:24:40.068Z,1.80
2018-08-18T15:27:09.148Z,1.70
2018-08-18T15:29:37.645Z,1.53
2018-08-18T15:32:06.435Z,1.63
2018-08-18T15:34:34.941Z,1.40
2018-08-18T15:37:03.977Z,1.53
2018-08-18T15:39:32.626Z,1.40
2018-08-18T15:42:01.782Z,1.57
2018-08-18T15:44:30.343Z,1.40
2018-08-18T15:46:59.409Z,1.60
2018-08-18T15:49:27.875Z,1.47
2018-08-18T15:51:56.526Z,1.63
2018-08-18T15:54:25.537Z,1.80
2018-08-18T15:56:53.964Z,1.37
2018-08-18T15:59:22.425Z,1.30
2018-08-18T16:01:51.005Z,1.60
2018-08-18T16:04:19.478Z,1.40
2018-08-18T16:06:47.969Z,1.50
2018-08-18T16:09:16.437Z,1.40
2018-08-18T16:11:44.981Z,1.80
2018-08-18T16:14:13.441Z,1.50
2018-08-18T16:16:56.300Z,1.67
2018-08-18T16:19:25.274Z,1.47
2018-08-18T16:21:54.064Z,1.43
2018-08-18T16:24:31.941Z,2.00
2018-08-18T16:27:02.291Z,1.57
2018-08-18T16:29:30.886Z,1.90
2018-08-18T16:32:13.364Z,1.77
2018-08-18T16:34:43.736Z,1.77
2018-08-18T16:37:12.352Z,1.80
2018-08-18T16:39:41.671Z,1.90
2018-08-18T16:42:11.188Z,1.50
2018-08-18T16:44:40.941Z,1.90
2018-08-18T16:47:09.686Z,1.70
2018-08-18T16:49:38.247Z,1.40
2018-08-18T16:52:06.733Z,1.57
2018-08-18T16:54:35.193Z,1.73
2018-08-18T16:57:03.734Z,1.30
2018-08-18T16:59:35.644Z,1.63
2018-08-18T17:02:05.049Z,1.70
2018-08-18T17:04:34.904Z,1.80
2018-08-18T17:07:08.507Z,1.30
2018-08-18T17:09:41.867Z,1.60
2018-08-18T17:12:17.641Z,1.50
2018-08-18T17:14:46.290Z,1.60
2018-08-18T17:17:14.862Z,1.13
2018-08-18T17:19:43.419Z,1.33
2018-08-18T17:22:13.685Z,2.10
2018-08-18T17:24:42.173Z,1.73
2018-08-18T17:27:10.744Z,1.90
2018-08-18T17:29:40.594Z,1.50
2018-08-18T17:32:09.655Z,2.17
2018-08-18T17:34:38.329Z,2.10
2018-08-18T17:37:07.217Z,2.00
2018-08-18T17:39:37.334Z,1.70
2018-08-18T17:42:05.915Z,2.13
2018-08-18T17:44:34.529Z,1.87
2018-08-18T17:47:05.263Z,1.57
2018-08-18T17:49:43.377Z,1.87
2018-08-18T17:52:12.020Z,2.00
2018-08-18T17:54:40.551Z,2.13
2018-08-18T17:57:09.485Z,2.50
2018-08-18T17:59:38.137Z,2.23
2018-08-18T18:02:11.845Z,2.13
2018-08-18T18:04:40.397Z,1.93
2018-08-18T18:07:10.159Z,1.90
2018-08-18T18:09:38.721Z,2.40
2018-08-18T18:12:24.748Z,2.73
2018-08-18T18:14:54.253Z,2.80
2018-08-18T18:17:23.521Z,3.77
2018-08-18T18:19:53.241Z,4.13
2018-08-18T18:22:21.747Z,3.87
2018-08-18T18:24:50.588Z,3.17
2018-08-18T18:27:19.377Z,3.00
2018-08-18T18:29:47.876Z,2.40
2018-08-18T18:32:16.373Z,2.70
2018-08-18T18:34:47.242Z,2.27
2018-08-18T18:37:15.924Z,2.53
2018-08-18T18:39:53.660Z,2.60
2018-08-18T18:42:22.229Z,2.30
2018-08-18T18:44:50.677Z,2.97
2018-08-18T18:47:19.168Z,3.00
2018-08-18T18:49:47.724Z,2.13
2018-08-18T18:52:16.193Z,2.33
2018-08-18T18:54:44.660Z,2.80
2018-08-18T18:57:13.420Z,2.70
2018-08-18T18:59:47.213Z,2.70
2018-08-18T19:02:15.999Z,2.57
2018-08-18T19:04:44.503Z,2.60
2018-08-18T19:07:13.022Z,2.63
2018-08-18T19:09:41.513Z,3.13
2018-08-18T19:12:09.976Z,3.70
2018-08-18T19:14:38.429Z,3.50
2018-08-18T19:17:06.920Z,3.10
2018-08-18T19:19:35.365Z,2.80
2018-08-18T19:22:07.167Z,2.90
2018-08-18T19:24:35.613Z,3.00
2018-08-18T19:27:04.113Z,2.57
2018-08-18T19:29:32.576Z,3.27
2018-08-18T19:32:01.476Z,3.33
2018-08-18T19:34:30.021Z,3.30
2018-08-18T19:37:01.115Z,3.33
2018-08-18T19:39:30.570Z,3.60
2018-08-18T19:42:09.252Z,3.17
2018-08-18T19:44:41.579Z,3.40
2018-08-18T19:47:10.077Z,3.20
2018-08-18T19:49:42.828Z,3.53
2018-08-18T19:52:15.624Z,3.70
2018-08-18T19:54:48.364Z,3.73
2018-08-18T19:57:22.601Z,6.43
2018-08-18T19:59:51.915Z,4.50
2018-08-18T20:02:20.624Z,4.00
2018-08-18T20:04:49.860Z,3.53
2018-08-18T20:07:18.859Z,3.40
2018-08-18T20:09:47.563Z,3.30
2018-08-18T20:12:16.034Z,3.77
2018-08-18T20:14:44.483Z,3.37
2018-08-18T20:17:12.961Z,4.37
2018-08-18T20:19:41.400Z,3.17
2018-08-18T20:22:14.665Z,3.60
2018-08-18T20:24:43.183Z,4.30
2018-08-18T20:27:11.620Z,4.50
2018-08-18T20:29:40.060Z,4.47
2018-08-18T20:32:08.577Z,4.67
2018-08-18T20:34:37.891Z,5.00
2018-08-18T20:37:06.450Z,4.73
2018-08-18T20:39:34.919Z,4.47
2018-08-18T20:42:03.367Z,4.33
2018-08-18T20:44:31.813Z,4.40
2018-08-18T20:47:00.261Z,4.23
2018-08-18T20:49:28.725Z,4.10
2018-08-18T20:51:57.231Z,4.10
2018-08-18T20:54:25.682Z,4.03
2018-08-18T20:56:54.128Z,4.60
2018-08-18T20:59:22.588Z,4.37
2018-08-18T21:01:51.012Z,4.20
2018-08-18T21:04:19.513Z,4.37
2018-08-18T21:06:47.949Z,4.47
2018-08-18T21:09:27.498Z,5.20
2018-08-18T21:11:55.986Z,4.83
2018-08-18T21:14:27.260Z,5.63
2018-08-18T21:16:56.253Z,5.20
2018-08-18T21:19:25.689Z,4.57
2018-08-18T21:21:55.452Z,5.47
2018-08-18T21:24:23.932Z,5.57
2018-08-18T21:26:52.420Z,5.67
2018-08-18T21:29:23.796Z,4.67
2018-08-18T21:31:52.299Z,5.17
2018-08-18T21:34:20.736Z,5.17
2018-08-18T21:36:49.184Z,5.13
2018-08-18T21:39:17.618Z,5.00
2018-08-18T21:41:47.334Z,4.90
2018-08-18T21:44:16.188Z,4.63
2018-08-18T21:46:45.000Z,5.10
2018-08-18T21:49:14.069Z,6.03
2018-08-18T21:51:42.522Z,5.63
2018-08-18T21:54:10.940Z,5.80
2018-08-18T21:56:41.687Z,5.43
2018-08-18T21:59:11.484Z,5.63
2018-08-18T22:01:40.116Z,6.10
2018-08-18T22:04:09.396Z,5.43
2018-08-18T22:06:37.941Z,5.10
2018-08-18T22:09:21.977Z,6.00
2018-08-18T22:11:50.713Z,6.53
2018-08-18T22:14:19.458Z,5.73
2018-08-18T22:16:56.973Z,5.60
2018-08-18T22:19:26.379Z,5.93
2018-08-18T22:21:54.881Z,6.20
2018-08-18T22:24:23.432Z,6.23
2018-08-18T22:26:51.956Z,7.10
2018-08-18T22:29:24.680Z,6.83
2018-08-18T22:31:53.327Z,6.33
2018-08-18T22:34:21.801Z,6.00
2018-08-18T22:36:50.380Z,5.73
2018-08-18T22:39:18.841Z,6.00
2018-08-18T22:41:47.272Z,6.47
2018-08-18T22:44:15.764Z,5.37
2018-08-18T22:46:44.213Z,6.73
2018-08-18T22:49:12.685Z,6.17
2018-08-18T22:51:41.133Z,6.97
2018-08-18T22:54:09.581Z,7.07
2018-08-18T22:56:38.661Z,7.00
2018-08-18T22:59:08.326Z,7.60
2018-08-18T23:01:38.593Z,7.30
2018-08-18T23:04:40.211Z,7.43
2018-08-18T23:07:09.029Z,7.17
2018-08-18T23:09:37.530Z,7.20
2018-08-18T23:12:07.156Z,6.50
2018-08-18T23:14:37.230Z,7.40
2018-08-18T23:17:06.868Z,7.10
2018-08-18T23:19:35.300Z,7.57
2018-08-18T23:22:03.861Z,7.83
2018-08-18T23:24:33.897Z,7.83
2018-08-18T23:27:03.075Z,8.17
2018-08-18T23:29:31.704Z,8.67
2018-08-18T23:32:03.017Z,8.67
2018-08-18T23:34:31.481Z,8.83
2018-08-18T23:37:00.041Z,8.87
2018-08-18T23:39:28.482Z,8.27
2018-08-18T23:42:30.720Z,9.33
2018-08-18T23:44:59.161Z,9.03
2018-08-18T23:47:27.619Z,9.67
2018-08-18T23:49:56.102Z,9.27
2018-08-18T23:52:24.596Z,9.93
2018-08-18T23:54:53.101Z,9.37
2018-08-18T23:57:21.580Z,9.17
2018-08-18T23:59:50.745Z,9.77
